createdAt,value
2022-10-06T00:01:16.275Z,13.50
2022-10-06T00:03:46.080Z,13.47
2022-10-06T00:06:18.065Z,13.45
2022-10-06T00:08:48.466Z,13.42
2022-10-06T00:11:20.262Z,13.39
2022-10-06T00:13:48.450Z,13.35
2022-10-06T00:16:22.468Z,13.33
2022-10-06T00:18:50.442Z,13.29
2022-10-06T00:21:17.836Z,13.27
2022-10-06T00:23:45.595Z,13.23
2022-10-06T00:26:17.010Z,13.21
2022-10-06T00:28:48.073Z,13.19
2022-10-06T00:31:19.408Z,13.16
2022-10-06T00:33:47.475Z,13.13
2022-10-06T00:36:14.692Z,13.11
2022-10-06T00:38:42.027Z,13.09
2022-10-06T00:41:18.345Z,13.06
2022-10-06T00:43:56.960Z,13.05
2022-10-06T00:46:45.175Z,13.03
2022-10-06T00:49:30.656Z,13.02
2022-10-06T00:52:11.900Z,13.01
2022-10-06T00:54:40.985Z,13.00
2022-10-06T00:57:09.746Z,12.98
2022-10-06T00:59:40.118Z,12.98
2022-10-06T01:02:25.085Z,12.97
2022-10-06T01:05:00.751Z,12.95
2022-10-06T01:07:30.623Z,12.94
2022-10-06T01:09:59.262Z,12.90
2022-10-06T01:12:30.741Z,12.88
2022-10-06T01:14:58.122Z,12.86
2022-10-06T01:17:45.751Z,12.81
2022-10-06T01:20:19.233Z,12.81
2022-10-06T01:23:10.096Z,12.79
2022-10-06T01:25:38.201Z,12.78
2022-10-06T01:28:09.918Z,12.74
2022-10-06T01:30:52.902Z,12.73
2022-10-06T01:33:23.874Z,12.71
2022-10-06T01:35:53.544Z,12.69
2022-10-06T01:38:21.978Z,12.68
2022-10-06T01:40:54.285Z,12.65
2022-10-06T01:43:21.868Z,12.64
2022-10-06T01:45:57.557Z,12.61
2022-10-06T01:48:27.043Z,12.59
2022-10-06T01:50:56.809Z,12.59
2022-10-06T01:53:24.120Z,12.57
2022-10-06T01:55:51.456Z,12.57
2022-10-06T01:58:24.299Z,12.55
2022-10-06T02:00:51.982Z,12.53
2022-10-06T02:03:19.187Z,12.51
2022-10-06T02:05:46.440Z,12.51
2022-10-06T02:08:14.195Z,12.48
2022-10-06T02:10:42.891Z,12.49
2022-10-06T02:13:17.519Z,12.47
2022-10-06T02:15:45.254Z,12.48
2022-10-06T02:18:12.542Z,12.46
2022-10-06T02:20:40.389Z,12.45
2022-10-06T02:23:07.596Z,12.42
2022-10-06T02:25:35.230Z,12.40
2022-10-06T02:28:02.712Z,12.37
2022-10-06T02:30:30.395Z,12.35
2022-10-06T02:32:57.741Z,12.33
2022-10-06T02:35:25.083Z,12.30
2022-10-06T02:37:52.428Z,12.29
2022-10-06T02:40:20.546Z,12.27
2022-10-06T02:42:50.439Z,12.23
2022-10-06T02:45:21.020Z,12.19
2022-10-06T02:47:48.421Z,12.16
2022-10-06T02:50:15.667Z,12.13
2022-10-06T02:52:42.949Z,12.10
2022-10-06T02:55:11.941Z,12.08
2022-10-06T02:57:39.752Z,12.03
2022-10-06T03:00:10.333Z,12.01
2022-10-06T03:02:37.713Z,11.96
2022-10-06T03:05:05.844Z,11.93
2022-10-06T03:07:34.166Z,11.89
2022-10-06T03:10:01.508Z,11.86
2022-10-06T03:12:28.910Z,11.82
2022-10-06T03:14:56.398Z,11.81
2022-10-06T03:17:23.684Z,11.76
2022-10-06T03:19:57.008Z,11.72
2022-10-06T03:22:25.071Z,11.69
2022-10-06T03:24:55.149Z,11.66
2022-10-06T03:27:22.729Z,11.63
2022-10-06T03:29:52.534Z,11.60
2022-10-06T03:32:23.666Z,11.58
2022-10-06T03:34:53.235Z,11.56
2022-10-06T03:37:20.844Z,11.52
2022-10-06T03:39:48.314Z,11.50
2022-10-06T03:42:16.039Z,11.46
2022-10-06T03:44:45.959Z,11.44
2022-10-06T03:47:16.942Z,11.41
2022-10-06T03:49:45.468Z,11.38
2022-10-06T03:52:14.425Z,11.34
2022-10-06T03:54:41.675Z,11.30
2022-10-06T03:57:09.408Z,11.28
2022-10-06T03:59:37.241Z,11.26
2022-10-06T04:02:06.055Z,11.24
2022-10-06T04:04:57.570Z,11.20
2022-10-06T04:07:24.960Z,11.19
2022-10-06T04:09:52.830Z,11.16
2022-10-06T04:12:20.092Z,11.13
2022-10-06T04:14:47.323Z,11.10
2022-10-06T04:17:14.589Z,11.09
2022-10-06T04:19:42.080Z,11.07
2022-10-06T04:22:10.638Z,11.06
2022-10-06T04:24:37.955Z,11.04
2022-10-06T04:27:23.912Z,11.02
2022-10-06T04:29:57.902Z,10.99
2022-10-06T04:32:25.360Z,10.97
2022-10-06T04:34:52.790Z,10.97
2022-10-06T04:37:20.174Z,10.94
2022-10-06T04:39:49.771Z,10.90
2022-10-06T04:42:20.857Z,10.89
2022-10-06T04:44:48.107Z,10.87
2022-10-06T04:47:15.549Z,10.87
2022-10-06T04:49:42.767Z,10.84
2022-10-06T04:52:10.473Z,10.83
2022-10-06T04:54:39.464Z,10.82
2022-10-06T04:57:08.704Z,10.80
2022-10-06T04:59:55.215Z,10.76
2022-10-06T05:02:23.378Z,10.75
2022-10-06T05:04:54.038Z,10.72
2022-10-06T05:07:23.484Z,10.71
2022-10-06T05:09:50.724Z,10.67
2022-10-06T05:12:18.486Z,10.65
2022-10-06T05:14:47.001Z,10.63
2022-10-06T05:17:15.693Z,10.59
2022-10-06T05:19:44.771Z,10.57
2022-10-06T05:22:12.569Z,10.56
2022-10-06T05:24:40.176Z,10.53
2022-10-06T05:27:07.392Z,10.51
2022-10-06T05:29:35.980Z,10.49
2022-10-06T05:32:05.404Z,10.47
2022-10-06T05:34:36.418Z,10.43
2022-10-06T05:37:03.960Z,10.40
2022-10-06T05:39:31.146Z,10.36
2022-10-06T05:41:59.181Z,10.34
2022-10-06T05:44:27.661Z,10.32
2022-10-06T05:46:56.661Z,10.27
2022-10-06T05:49:24.088Z,10.26
2022-10-06T05:51:56.130Z,10.22
2022-10-06T05:54:27.204Z,10.21
2022-10-06T05:56:54.601Z,10.19
2022-10-06T05:59:22.810Z,10.15
2022-10-06T06:01:52.196Z,10.15
2022-10-06T06:04:32.744Z,10.13
2022-10-06T06:07:01.021Z,10.12
2022-10-06T06:09:28.934Z,10.11
2022-10-06T06:12:00.923Z,10.11
2022-10-06T06:15:11.002Z,10.11
2022-10-06T06:17:43.126Z,10.11
2022-10-06T06:20:10.482Z,10.12
2022-10-06T06:22:37.941Z,10.13
2022-10-06T06:25:07.189Z,10.15
2022-10-06T06:27:35.678Z,10.16
2022-10-06T06:30:04.162Z,10.18
2022-10-06T06:32:31.865Z,10.19
2022-10-06T06:34:59.281Z,10.22
2022-10-06T06:37:27.586Z,10.26
2022-10-06T06:39:55.424Z,10.28
2022-10-06T06:42:22.651Z,10.32
2022-10-06T06:44:58.229Z,10.36
2022-10-06T06:47:31.073Z,10.41
2022-10-06T06:50:00.994Z,10.46
2022-10-06T06:52:31.115Z,10.50
2022-10-06T06:54:58.646Z,10.56
2022-10-06T06:57:26.345Z,10.61
2022-10-06T06:59:57.034Z,10.66
2022-10-06T07:02:26.566Z,10.70
2022-10-06T07:04:53.845Z,10.75
2022-10-06T07:07:21.164Z,10.81
2022-10-06T07:09:48.503Z,10.84
2022-10-06T07:12:17.868Z,10.87
2022-10-06T07:15:09.066Z,10.88
2022-10-06T07:17:58.995Z,10.90
2022-10-06T07:20:45.100Z,10.93
2022-10-06T07:23:38.854Z,10.94
2022-10-06T07:26:10.842Z,10.98
2022-10-06T07:28:38.203Z,10.99
2022-10-06T07:31:05.659Z,11.01
2022-10-06T07:33:33.729Z,11.03
2022-10-06T07:36:04.445Z,11.05
2022-10-06T07:38:33.162Z,11.08
2022-10-06T07:41:18.298Z,11.11
2022-10-06T07:43:53.797Z,11.16
2022-10-06T07:46:22.867Z,11.17
2022-10-06T07:49:19.348Z,11.18
2022-10-06T07:51:50.776Z,11.21
2022-10-06T07:54:26.547Z,11.24
2022-10-06T07:57:19.735Z,11.27
2022-10-06T07:59:47.159Z,11.30
2022-10-06T08:02:14.661Z,11.34
2022-10-06T08:04:41.968Z,11.37
2022-10-06T08:07:10.551Z,11.41
2022-10-06T08:09:37.859Z,11.44
2022-10-06T08:12:25.052Z,11.48
2022-10-06T08:14:52.581Z,11.52
2022-10-06T08:17:20.037Z,11.56
2022-10-06T08:19:47.993Z,11.61
2022-10-06T08:22:15.997Z,11.65
2022-10-06T08:25:04.730Z,11.69
2022-10-06T08:27:31.518Z,11.75
2022-10-06T08:29:58.789Z,11.80
2022-10-06T08:32:26.287Z,11.84
2022-10-06T08:34:54.396Z,11.90
2022-10-06T08:37:23.818Z,11.92
2022-10-06T08:39:51.826Z,11.99
2022-10-06T08:42:46.065Z,12.06
2022-10-06T08:45:26.533Z,12.10
2022-10-06T08:48:17.668Z,12.16
2022-10-06T08:51:19.687Z,12.22
2022-10-06T08:54:02.705Z,12.29
2022-10-06T08:57:05.329Z,12.36
2022-10-06T08:59:36.945Z,12.41
2022-10-06T09:02:41.970Z,12.46
2022-10-06T09:05:23.157Z,12.52
2022-10-06T09:08:29.165Z,12.61
2022-10-06T09:11:49.698Z,12.68
2022-10-06T09:14:37.564Z,12.76
2022-10-06T09:17:20.275Z,12.84
2022-10-06T09:20:20.501Z,12.90
2022-10-06T09:22:51.688Z,12.97
2022-10-06T09:25:26.711Z,13.04
2022-10-06T09:27:58.146Z,13.09
2022-10-06T09:30:26.827Z,13.15
2022-10-06T09:33:04.665Z,13.20
2022-10-06T09:35:33.143Z,13.30
2022-10-06T09:38:08.718Z,13.39
2022-10-06T09:40:59.266Z,13.48
2022-10-06T09:43:29.564Z,13.55
2022-10-06T09:46:41.772Z,13.68
2022-10-06T09:49:19.490Z,13.80
2022-10-06T09:52:15.221Z,13.93
2022-10-06T09:54:44.739Z,14.05
2022-10-06T09:57:27.045Z,14.12
2022-10-06T09:59:59.174Z,14.20
2022-10-06T10:02:37.545Z,14.23
2022-10-06T10:05:31.861Z,14.28
2022-10-06T10:08:29.922Z,14.33
2022-10-06T10:11:29.227Z,14.43
2022-10-06T10:13:58.863Z,14.49
2022-10-06T10:16:35.499Z,14.53
2022-10-06T10:19:05.807Z,14.59
2022-10-06T10:21:35.493Z,14.63
2022-10-06T10:24:23.406Z,14.63
2022-10-06T10:27:18.246Z,14.69
2022-10-06T10:30:15.351Z,14.83
2022-10-06T10:33:17.412Z,15.01
2022-10-06T10:35:52.704Z,15.26
2022-10-06T10:38:26.952Z,15.30
2022-10-06T10:41:09.876Z,15.33
2022-10-06T10:44:18.004Z,15.38
2022-10-06T10:46:55.536Z,15.42
2022-10-06T10:49:31.246Z,15.50
2022-10-06T10:52:24.104Z,15.56
2022-10-06T10:55:27.188Z,15.63
2022-10-06T10:58:19.235Z,15.74
2022-10-06T11:00:56.457Z,15.86
2022-10-06T11:03:23.816Z,15.95
2022-10-06T11:06:16.896Z,15.96
2022-10-06T11:09:10.551Z,15.86
2022-10-06T11:12:13.569Z,15.74
2022-10-06T11:15:21.467Z,15.73
2022-10-06T11:17:50.568Z,15.68
2022-10-06T11:20:44.145Z,15.58
2022-10-06T11:23:50.562Z,15.58
2022-10-06T11:26:51.064Z,15.62
2022-10-06T11:29:46.992Z,15.72
2022-10-06T11:32:44.712Z,15.85
2022-10-06T11:35:26.996Z,15.98
2022-10-06T11:38:30.198Z,16.10
2022-10-06T11:41:51.269Z,16.22
2022-10-06T11:44:37.195Z,16.25
2022-10-06T11:47:16.487Z,16.27
2022-10-06T11:49:56.106Z,16.22
2022-10-06T11:52:23.163Z,16.16
2022-10-06T11:55:20.294Z,16.17
2022-10-06T11:58:37.896Z,16.19
2022-10-06T12:01:02.429Z,16.25
2022-10-06T12:03:31.130Z,16.32
2022-10-06T12:05:58.437Z,16.36
2022-10-06T12:08:39.904Z,16.41
2022-10-06T12:11:43.823Z,16.50
2022-10-06T12:16:32.505Z,16.59
2022-10-06T12:18:01.952Z,16.72
2022-10-06T12:20:55.595Z,16.85
2022-10-06T12:24:24.082Z,17.00
2022-10-06T12:27:26.438Z,17.14
2022-10-06T12:30:30.723Z,17.21
2022-10-06T12:33:03.624Z,17.26
2022-10-06T12:35:40.202Z,17.31
2022-10-06T12:38:41.360Z,17.44
2022-10-06T12:41:14.622Z,17.48
2022-10-06T12:43:57.346Z,17.50
2022-10-06T12:46:43.599Z,17.50
2022-10-06T12:49:35.325Z,17.52
2022-10-06T12:52:55.472Z,17.51
2022-10-06T12:55:53.014Z,17.51
2022-10-06T12:58:33.358Z,17.52
2022-10-06T13:01:06.930Z,17.51
2022-10-06T13:03:36.958Z,17.55
2022-10-06T13:06:09.395Z,17.56
2022-10-06T13:08:39.515Z,17.57
2022-10-06T13:11:27.087Z,17.56
2022-10-06T13:14:09.808Z,17.52
2022-10-06T13:16:42.965Z,17.49
2022-10-06T13:19:28.310Z,17.43
2022-10-06T13:21:55.658Z,17.31
2022-10-06T13:24:27.307Z,17.27
2022-10-06T13:26:54.894Z,17.22
2022-10-06T13:29:26.120Z,17.23
2022-10-06T13:31:56.802Z,17.26
2022-10-06T13:34:35.947Z,17.31
2022-10-06T13:37:03.531Z,17.38
2022-10-06T13:39:31.915Z,17.47
2022-10-06T13:42:21.375Z,17.47
2022-10-06T13:45:02.828Z,17.52
2022-10-06T13:47:30.767Z,17.49
2022-10-06T13:50:19.764Z,17.46
2022-10-06T13:52:48.822Z,17.50
2022-10-06T13:55:26.935Z,17.54
2022-10-06T13:58:03.377Z,17.55
2022-10-06T14:00:57.409Z,17.56
2022-10-06T14:06:22.254Z,17.53
2022-10-06T14:08:57.970Z,17.51
2022-10-06T14:11:29.826Z,17.46
2022-10-06T14:14:07.403Z,17.44
2022-10-06T14:16:34.778Z,17.40
2022-10-06T14:19:06.715Z,17.39
2022-10-06T14:21:41.784Z,17.41
2022-10-06T14:24:28.293Z,17.51
2022-10-06T14:27:03.367Z,17.81
2022-10-06T14:29:31.683Z,18.12
2022-10-06T14:32:14.640Z,18.46
2022-10-06T14:34:42.530Z,18.50
2022-10-06T14:37:15.404Z,18.57
2022-10-06T14:39:45.428Z,18.85
2022-10-06T14:42:15.366Z,18.83
2022-10-06T14:44:43.261Z,18.69
2022-10-06T14:47:10.869Z,18.66
2022-10-06T14:49:38.193Z,19.01
2022-10-06T14:52:07.052Z,19.56
2022-10-06T14:54:34.741Z,20.13
2022-10-06T14:57:02.071Z,20.38
2022-10-06T14:59:29.277Z,20.22
2022-10-06T15:01:56.725Z,20.46
2022-10-06T15:04:27.934Z,20.88
2022-10-06T15:07:14.029Z,21.32
2022-10-06T15:09:42.717Z,21.72
2022-10-06T15:12:10.972Z,22.01
2022-10-06T15:14:39.821Z,22.22
2022-10-06T15:17:07.357Z,22.37
2022-10-06T15:19:34.582Z,22.55
2022-10-06T15:22:02.546Z,22.68
2022-10-06T15:24:29.733Z,22.73
2022-10-06T15:27:15.575Z,22.72
2022-10-06T15:29:42.809Z,22.76
2022-10-06T15:32:10.074Z,22.59
2022-10-06T15:34:37.842Z,22.17
2022-10-06T15:37:06.433Z,22.19
2022-10-06T15:39:37.746Z,22.29
2022-10-06T15:42:06.102Z,22.31
2022-10-06T15:44:36.953Z,22.01
2022-10-06T15:47:07.942Z,21.26
2022-10-06T15:49:40.320Z,20.83
2022-10-06T15:52:11.867Z,20.89
2022-10-06T15:54:41.062Z,21.09
2022-10-06T15:57:17.958Z,21.20
2022-10-06T15:59:47.802Z,21.23
2022-10-06T16:02:18.414Z,21.21
2022-10-06T16:05:04.590Z,20.99
2022-10-06T16:07:32.679Z,20.90
2022-10-06T16:10:00.267Z,20.81
2022-10-06T16:12:28.549Z,20.19
2022-10-06T16:14:55.759Z,19.49
2022-10-06T16:17:22.906Z,18.93
2022-10-06T16:19:50.245Z,18.48
2022-10-06T16:22:19.843Z,18.09
2022-10-06T16:24:47.026Z,17.77
2022-10-06T16:27:16.179Z,17.47
2022-10-06T16:29:46.072Z,17.21
2022-10-06T16:32:13.868Z,17.00
2022-10-06T16:34:41.074Z,16.81
2022-10-06T16:37:08.267Z,16.64
2022-10-06T16:39:35.458Z,16.50
2022-10-06T16:42:02.673Z,16.36
2022-10-06T16:44:29.777Z,16.24
2022-10-06T16:46:57.011Z,16.11
2022-10-06T16:49:24.570Z,16.02
2022-10-06T16:51:51.803Z,15.92
2022-10-06T16:54:19.121Z,15.82
2022-10-06T16:56:54.582Z,15.74
2022-10-06T16:59:26.486Z,15.65
2022-10-06T17:01:53.718Z,15.57
2022-10-06T17:04:24.624Z,15.49
2022-10-06T17:06:56.751Z,15.40
2022-10-06T17:09:29.823Z,15.31
2022-10-06T17:12:02.397Z,15.23
2022-10-06T17:14:33.262Z,15.14
2022-10-06T17:17:01.543Z,15.05
2022-10-06T17:19:30.638Z,14.99
2022-10-06T17:21:59.857Z,14.92
2022-10-06T17:24:29.610Z,14.84
2022-10-06T17:26:58.331Z,14.78
2022-10-06T17:29:26.346Z,14.72
2022-10-06T17:31:59.912Z,14.65
2022-10-06T17:34:32.291Z,14.60
2022-10-06T17:37:02.009Z,14.54
2022-10-06T17:39:29.262Z,14.50
2022-10-06T17:41:56.959Z,14.44
2022-10-06T17:44:26.945Z,14.40
2022-10-06T17:47:00.565Z,14.32
2022-10-06T17:49:32.631Z,14.28
2022-10-06T17:52:00.225Z,14.23
2022-10-06T17:54:28.533Z,14.19
2022-10-06T17:56:58.185Z,14.13
2022-10-06T17:59:31.585Z,14.09
2022-10-06T18:02:02.965Z,14.02
2022-10-06T18:04:30.783Z,13.95
2022-10-06T18:06:57.977Z,13.90
2022-10-06T18:09:26.059Z,13.83
2022-10-06T18:11:56.412Z,13.77
2022-10-06T18:14:33.328Z,13.71
2022-10-06T18:17:03.864Z,13.67
2022-10-06T18:19:36.165Z,13.61
2022-10-06T18:22:10.251Z,13.56
2022-10-06T18:24:40.130Z,13.50
2022-10-06T18:27:08.163Z,13.47
2022-10-06T18:29:38.940Z,13.42
2022-10-06T18:32:40.557Z,13.40
2022-10-06T18:37:43.014Z,13.34
2022-10-06T18:40:11.477Z,13.31
2022-10-06T18:42:39.423Z,13.25
2022-10-06T18:45:27.996Z,13.21
2022-10-06T18:48:14.047Z,13.16
2022-10-06T18:50:41.320Z,13.11
2022-10-06T18:53:08.632Z,13.06
2022-10-06T18:55:35.847Z,13.00
2022-10-06T18:58:04.558Z,12.94
2022-10-06T19:00:32.254Z,12.91
2022-10-06T19:02:59.437Z,12.86
2022-10-06T19:05:26.860Z,12.81
2022-10-06T19:07:54.512Z,12.77
2022-10-06T19:10:21.994Z,12.72
2022-10-06T19:12:49.655Z,12.69
2022-10-06T19:15:20.814Z,12.65
2022-10-06T19:17:50.175Z,12.61
2022-10-06T19:20:18.490Z,12.57
2022-10-06T19:22:47.454Z,12.53
2022-10-06T19:25:18.554Z,12.48
2022-10-06T19:27:48.871Z,12.44
2022-10-06T19:30:16.081Z,12.37
2022-10-06T19:32:43.433Z,12.31
2022-10-06T19:35:11.027Z,12.28
2022-10-06T19:37:39.057Z,12.22
2022-10-06T19:40:08.700Z,12.17
2022-10-06T19:42:48.389Z,12.16
2022-10-06T19:45:17.566Z,12.13
2022-10-06T19:47:46.177Z,12.09
2022-10-06T19:50:17.051Z,12.08
2022-10-06T19:52:45.198Z,12.05
2022-10-06T19:55:12.646Z,12.00
2022-10-06T19:57:40.017Z,11.98
2022-10-06T20:00:10.072Z,11.98
2022-10-06T20:02:43.132Z,11.93
2022-10-06T20:05:14.749Z,11.90
2022-10-06T20:07:45.560Z,11.87
2022-10-06T20:10:13.419Z,11.87
2022-10-06T20:12:44.030Z,11.81
2022-10-06T20:15:12.843Z,11.77
2022-10-06T20:17:42.340Z,11.73
2022-10-06T20:20:10.384Z,11.68
2022-10-06T20:22:37.558Z,11.65
2022-10-06T20:25:07.171Z,11.60
2022-10-06T20:27:35.959Z,11.56
2022-10-06T20:30:03.907Z,11.53
2022-10-06T20:32:31.052Z,11.49
2022-10-06T20:34:58.260Z,11.47
2022-10-06T20:37:25.448Z,11.46
2022-10-06T20:40:11.426Z,11.41
2022-10-06T20:42:41.341Z,11.37
2022-10-06T20:45:09.305Z,11.34
2022-10-06T20:47:39.267Z,11.30
2022-10-06T20:50:07.668Z,11.26
2022-10-06T20:52:34.837Z,11.23
2022-10-06T20:55:01.984Z,11.20
2022-10-06T20:57:33.695Z,11.17
2022-10-06T21:00:04.597Z,11.15
2022-10-06T21:02:32.035Z,11.12
2022-10-06T21:04:59.846Z,11.10
2022-10-06T21:07:27.206Z,11.02
2022-10-06T21:09:54.393Z,10.97
2022-10-06T21:12:21.665Z,10.91
2022-10-06T21:14:48.837Z,10.90
2022-10-06T21:17:16.020Z,10.86
2022-10-06T21:19:43.412Z,10.83
2022-10-06T21:22:10.745Z,10.81
2022-10-06T21:24:37.911Z,10.77
2022-10-06T21:27:05.096Z,10.73
2022-10-06T21:29:32.349Z,10.70
2022-10-06T21:31:59.713Z,10.68
2022-10-06T21:34:26.873Z,10.64
2022-10-06T21:36:54.001Z,10.62
2022-10-06T21:39:21.248Z,10.63
2022-10-06T21:41:48.535Z,10.61
2022-10-06T21:44:19.752Z,10.58
2022-10-06T21:46:55.980Z,10.58
2022-10-06T21:49:25.501Z,10.58
2022-10-06T21:51:56.240Z,10.56
2022-10-06T21:54:24.212Z,10.53
2022-10-06T21:56:52.031Z,10.54
2022-10-06T21:59:19.374Z,10.50
2022-10-06T22:01:50.214Z,10.49
2022-10-06T22:04:18.453Z,10.48
2022-10-06T22:06:50.041Z,10.48
2022-10-06T22:09:20.764Z,10.47
2022-10-06T22:11:49.123Z,10.44
2022-10-06T22:14:19.946Z,10.43
2022-10-06T22:16:48.035Z,10.39
2022-10-06T22:19:16.408Z,10.37
2022-10-06T22:21:48.475Z,10.33
2022-10-06T22:24:21.795Z,10.33
2022-10-06T22:26:50.166Z,10.32
2022-10-06T22:29:20.241Z,10.31
2022-10-06T22:31:48.622Z,10.27
2022-10-06T22:34:20.507Z,10.26
2022-10-06T22:36:50.534Z,10.23
2022-10-06T22:39:18.274Z,10.22
2022-10-06T22:41:45.641Z,10.21
2022-10-06T22:44:12.825Z,10.19
2022-10-06T22:46:40.075Z,10.19
2022-10-06T22:49:07.311Z,10.17
2022-10-06T22:51:35.459Z,10.14
2022-10-06T22:54:03.205Z,10.12
2022-10-06T22:56:34.442Z,10.10
2022-10-06T22:59:02.016Z,10.06
2022-10-06T23:01:30.720Z,10.03
2022-10-06T23:03:58.537Z,10.01
2022-10-06T23:06:26.743Z,9.99
2022-10-06T23:08:53.890Z,9.96
2022-10-06T23:11:22.942Z,9.96
2022-10-06T23:13:50.744Z,9.94
2022-10-06T23:16:19.963Z,9.92
2022-10-06T23:18:48.356Z,9.91
2022-10-06T23:21:23.841Z,9.88
2022-10-06T23:24:00.213Z,9.85
2022-10-06T23:26:28.238Z,9.83
2022-10-06T23:28:59.983Z,9.78
2022-10-06T23:31:29.769Z,9.77
2022-10-06T23:33:57.550Z,9.75
2022-10-06T23:36:24.799Z,9.74
2022-10-06T23:38:52.064Z,9.71
2022-10-06T23:41:20.246Z,9.69
2022-10-06T23:43:47.594Z,9.66
2022-10-06T23:46:15.406Z,9.66
2022-10-06T23:48:43.278Z,9.63
2022-10-06T23:51:15.324Z,9.63
2022-10-06T23:53:43.175Z,9.61
2022-10-06T23:56:11.332Z,9.60
2022-10-06T23:58:39.073Z,9.57
